createdAt,value
2022-10-15T00:00:02.267Z,20.0
2022-10-15T00:02:03.531Z,19.9
2022-10-15T00:04:03.049Z,19.9
2022-10-15T00:06:04.667Z,19.8
2022-10-15T00:08:02.213Z,19.8
2022-10-15T00:10:02.375Z,19.7
2022-10-15T00:12:02.261Z,19.7
2022-10-15T00:14:02.841Z,19.6
2022-10-15T00:16:02.311Z,19.6
2022-10-15T00:18:02.421Z,19.5
2022-10-15T00:20:03.896Z,19.5
2022-10-15T00:22:02.700Z,19.4
2022-10-15T00:24:03.381Z,19.4
2022-10-15T00:26:05.517Z,19.3
2022-10-15T00:28:02.166Z,19.3
2022-10-15T00:30:03.557Z,19.2
2022-10-15T00:32:02.182Z,19.2
2022-10-15T00:34:03.314Z,19.1
2022-10-15T00:36:05.037Z,19.1
2022-10-15T00:38:02.254Z,19.0
2022-10-15T00:42:02.524Z,18.9
2022-10-15T00:44:13.039Z,18.8
2022-10-15T00:46:02.507Z,18.7
2022-10-15T00:48:02.936Z,18.6
2022-10-15T00:50:07.177Z,18.6
2022-10-15T00:52:06.775Z,18.4
2022-10-15T00:54:03.265Z,18.3
2022-10-15T00:56:03.147Z,18.2
2022-10-15T00:58:06.562Z,18.1
2022-10-15T01:00:06.732Z,18.1
2022-10-15T01:02:02.834Z,18.0
2022-10-15T01:04:04.695Z,17.9
2022-10-15T01:06:04.063Z,17.9
2022-10-15T01:08:02.184Z,17.8
2022-10-15T01:10:03.762Z,17.7
2022-10-15T01:12:04.032Z,17.7
2022-10-15T01:14:15.718Z,17.7
2022-10-15T01:16:09.220Z,17.6
2022-10-15T01:18:10.818Z,17.5
2022-10-15T01:20:21.414Z,17.4
2022-10-15T01:22:06.501Z,17.4
2022-10-15T01:24:21.815Z,17.3
2022-10-15T01:26:13.655Z,17.2
2022-10-15T01:28:13.840Z,17.1
2022-10-15T01:30:15.984Z,17.1
2022-10-15T01:32:10.146Z,16.9
2022-10-15T01:34:10.221Z,16.9
2022-10-15T01:36:13.965Z,16.8
2022-10-15T01:38:15.000Z,16.7
2022-10-15T01:40:08.350Z,16.6
2022-10-15T01:42:08.082Z,16.6
2022-10-15T01:44:07.696Z,16.5
2022-10-15T01:46:08.780Z,16.4
2022-10-15T01:48:08.376Z,16.3
2022-10-15T01:50:05.926Z,16.2
2022-10-15T01:52:10.141Z,16.2
2022-10-15T01:54:06.034Z,16.1
2022-10-15T01:56:08.414Z,16.0
2022-10-15T01:58:04.089Z,15.9
2022-10-15T02:00:04.541Z,15.9
2022-10-15T02:02:02.789Z,15.8
2022-10-15T02:04:02.197Z,15.8
2022-10-15T02:06:07.789Z,15.7
2022-10-15T02:08:14.160Z,15.7
2022-10-15T02:10:12.899Z,15.7
2022-10-15T02:12:11.795Z,15.6
2022-10-15T02:14:09.089Z,15.6
2022-10-15T02:16:11.429Z,15.6
2022-10-15T02:18:07.171Z,15.5
2022-10-15T02:20:07.294Z,15.5
2022-10-15T02:22:08.572Z,15.4
2022-10-15T02:24:09.744Z,15.4
2022-10-15T02:26:06.943Z,15.4
2022-10-15T02:28:05.548Z,15.3
2022-10-15T02:30:06.960Z,15.3
2022-10-15T02:32:06.324Z,15.3
2022-10-15T02:34:08.090Z,15.2
2022-10-15T02:36:03.405Z,15.2
2022-10-15T02:38:08.238Z,15.1
2022-10-15T02:40:02.261Z,15.1
2022-10-15T02:42:03.661Z,15.0
2022-10-15T02:44:02.748Z,15.0
2022-10-15T02:46:02.571Z,14.9
2022-10-15T02:48:02.252Z,14.9
2022-10-15T02:50:02.235Z,14.9
2022-10-15T02:52:02.155Z,14.8
2022-10-15T02:54:04.202Z,14.8
2022-10-15T02:56:02.234Z,14.8
2022-10-15T02:58:02.687Z,14.7
2022-10-15T03:00:02.248Z,14.7
2022-10-15T03:02:02.728Z,14.7
2022-10-15T03:04:02.560Z,14.6
2022-10-15T03:06:02.753Z,14.6
2022-10-15T03:08:02.235Z,14.6
2022-10-15T03:10:03.436Z,14.5
2022-10-15T03:12:02.744Z,14.4
2022-10-15T03:14:02.195Z,14.4
2022-10-15T03:16:05.763Z,14.3
2022-10-15T03:18:02.208Z,14.3
2022-10-15T03:20:02.839Z,14.2
2022-10-15T03:22:02.613Z,14.2
2022-10-15T03:24:02.924Z,14.2
2022-10-15T03:26:02.258Z,14.1
2022-10-15T03:28:02.734Z,14.1
2022-10-15T03:30:02.203Z,14.0
2022-10-15T03:32:02.246Z,13.9
2022-10-15T03:34:02.794Z,13.9
2022-10-15T03:36:02.187Z,13.9
2022-10-15T03:38:02.725Z,13.8
2022-10-15T03:40:02.811Z,13.8
2022-10-15T03:42:02.904Z,13.7
2022-10-15T03:44:03.595Z,13.7
2022-10-15T03:46:03.632Z,13.7
2022-10-15T03:48:02.288Z,13.7
2022-10-15T03:50:02.377Z,13.6
2022-10-15T03:52:02.539Z,13.6
2022-10-15T03:54:02.378Z,13.6
2022-10-15T03:56:05.116Z,13.5
2022-10-15T03:58:02.205Z,13.5
2022-10-15T04:00:02.359Z,13.4
2022-10-15T04:02:02.234Z,13.4
2022-10-15T04:04:02.596Z,13.4
2022-10-15T04:06:03.398Z,13.4
2022-10-15T04:08:02.400Z,13.3
2022-10-15T04:10:02.231Z,13.3
2022-10-15T04:12:02.814Z,13.3
2022-10-15T04:14:02.251Z,13.3
2022-10-15T04:16:05.012Z,13.3
2022-10-15T04:18:02.612Z,13.3
2022-10-15T04:20:02.522Z,13.3
2022-10-15T04:22:04.433Z,13.2
2022-10-15T04:24:02.906Z,13.2
2022-10-15T04:26:02.945Z,13.2
2022-10-15T04:28:03.433Z,13.2
2022-10-15T04:30:02.208Z,13.2
2022-10-15T04:32:02.328Z,13.2
2022-10-15T04:34:02.211Z,13.2
2022-10-15T04:36:04.530Z,13.1
2022-10-15T04:38:03.031Z,13.1
2022-10-15T04:40:04.493Z,13.2
2022-10-15T04:42:02.724Z,13.1
2022-10-15T04:44:02.246Z,13.1
2022-10-15T04:46:04.679Z,13.1
2022-10-15T04:48:02.207Z,13.1
2022-10-15T04:50:02.195Z,13.1
2022-10-15T04:52:02.559Z,13.1
2022-10-15T04:54:03.009Z,13.1
2022-10-15T04:56:04.219Z,13.1
2022-10-15T04:58:02.190Z,13.1
2022-10-15T05:00:02.199Z,13.1
2022-10-15T05:02:02.253Z,13.1
2022-10-15T05:04:02.618Z,13.1
2022-10-15T05:06:04.611Z,13.1
2022-10-15T05:08:03.642Z,13.1
2022-10-15T05:10:02.181Z,13.1
2022-10-15T05:12:02.204Z,13.0
2022-10-15T05:14:02.194Z,13.1
2022-10-15T05:16:11.071Z,13.0
2022-10-15T05:18:02.359Z,13.0
2022-10-15T05:20:02.273Z,12.9
2022-10-15T05:22:02.739Z,12.9
2022-10-15T05:24:04.902Z,12.9
2022-10-15T05:26:03.538Z,12.8
2022-10-15T05:28:02.591Z,12.8
2022-10-15T05:30:02.453Z,12.8
2022-10-15T05:32:02.188Z,12.8
2022-10-15T05:34:07.805Z,12.8
2022-10-15T05:36:11.099Z,12.8
2022-10-15T05:38:04.039Z,12.7
2022-10-15T05:40:03.076Z,12.7
2022-10-15T05:42:03.005Z,12.7
2022-10-15T05:44:02.789Z,12.7
2022-10-15T05:46:02.856Z,12.7
2022-10-15T05:48:02.159Z,12.6
2022-10-15T05:50:02.220Z,12.6
2022-10-15T05:52:02.338Z,12.6
2022-10-15T05:54:02.447Z,12.5
2022-10-15T05:56:02.928Z,12.4
2022-10-15T05:58:03.876Z,12.4
2022-10-15T06:00:02.598Z,12.4
2022-10-15T06:02:02.868Z,12.4
2022-10-15T06:04:02.345Z,12.3
2022-10-15T06:06:03.072Z,12.3
2022-10-15T06:08:03.415Z,12.3
2022-10-15T06:10:02.163Z,12.2
2022-10-15T06:12:02.348Z,12.2
2022-10-15T06:14:02.165Z,12.2
2022-10-15T06:16:04.467Z,12.1
2022-10-15T06:18:02.338Z,12.1
2022-10-15T06:20:02.230Z,12.1
2022-10-15T06:22:02.871Z,12.0
2022-10-15T06:24:04.126Z,11.9
2022-10-15T06:26:03.247Z,11.9
2022-10-15T06:28:03.677Z,11.9
2022-10-15T06:30:02.239Z,11.9
2022-10-15T06:32:02.160Z,11.8
2022-10-15T06:34:02.364Z,11.8
2022-10-15T06:36:02.481Z,11.8
2022-10-15T06:38:03.447Z,11.8
2022-10-15T06:40:03.359Z,11.8
2022-10-15T06:42:02.172Z,11.8
2022-10-15T06:44:02.203Z,11.8
2022-10-15T06:46:04.127Z,11.7
2022-10-15T06:48:02.182Z,11.7
2022-10-15T06:50:02.381Z,11.7
2022-10-15T06:52:03.911Z,11.6
2022-10-15T06:54:02.192Z,11.6
2022-10-15T06:56:04.135Z,11.6
2022-10-15T06:58:02.217Z,11.6
2022-10-15T07:00:02.261Z,11.5
2022-10-15T07:02:02.886Z,11.5
2022-10-15T07:04:02.399Z,11.5
2022-10-15T07:06:03.333Z,11.4
2022-10-15T07:08:02.533Z,11.4
2022-10-15T07:10:02.188Z,11.4
2022-10-15T07:12:03.744Z,11.4
2022-10-15T07:14:02.281Z,11.4
2022-10-15T07:16:05.519Z,11.3
2022-10-15T07:18:02.285Z,11.3
2022-10-15T07:20:02.279Z,11.3
2022-10-15T07:22:02.171Z,11.4
2022-10-15T07:24:02.241Z,11.3
2022-10-15T07:26:02.601Z,11.3
2022-10-15T07:28:02.403Z,11.3
2022-10-15T07:30:02.220Z,11.4
2022-10-15T07:32:03.359Z,11.3
2022-10-15T07:34:02.251Z,11.3
2022-10-15T07:36:05.260Z,11.3
2022-10-15T07:38:02.262Z,11.3
2022-10-15T07:40:02.730Z,11.3
2022-10-15T07:42:02.293Z,11.3
2022-10-15T07:44:03.438Z,11.2
2022-10-15T07:46:03.186Z,11.2
2022-10-15T07:48:02.191Z,11.2
2022-10-15T07:50:02.513Z,11.2
2022-10-15T07:52:02.540Z,11.1
2022-10-15T07:54:02.243Z,11.1
2022-10-15T07:56:05.893Z,11.1
2022-10-15T07:58:05.266Z,11.1
2022-10-15T08:00:02.772Z,11.1
2022-10-15T08:02:03.048Z,11.1
2022-10-15T08:04:02.932Z,11.0
2022-10-15T08:06:04.363Z,11.0
2022-10-15T08:08:03.041Z,11.0
2022-10-15T08:10:02.342Z,10.9
2022-10-15T08:12:02.169Z,10.9
2022-10-15T08:14:03.407Z,10.9
2022-10-15T08:16:02.431Z,10.9
2022-10-15T08:18:02.172Z,10.9
2022-10-15T08:20:03.082Z,10.9
2022-10-15T08:22:02.599Z,10.9
2022-10-15T08:24:02.266Z,10.9
2022-10-15T08:26:03.482Z,10.8
2022-10-15T08:28:02.377Z,10.8
2022-10-15T08:30:02.350Z,10.8
2022-10-15T08:32:02.350Z,10.8
2022-10-15T08:34:03.584Z,10.8
2022-10-15T08:36:04.439Z,10.7
2022-10-15T08:38:02.469Z,10.7
2022-10-15T08:40:02.681Z,10.7
2022-10-15T08:42:07.594Z,10.6
2022-10-15T08:44:03.975Z,10.6
2022-10-15T08:46:07.109Z,10.6
2022-10-15T08:48:06.622Z,10.6
2022-10-15T08:50:06.426Z,10.6
2022-10-15T08:52:13.669Z,10.6
2022-10-15T08:54:04.722Z,10.6
2022-10-15T08:56:13.817Z,10.6
2022-10-15T08:58:13.407Z,10.6
2022-10-15T09:00:06.093Z,10.5
2022-10-15T09:02:10.472Z,10.5
2022-10-15T09:04:15.145Z,10.5
2022-10-15T09:06:12.026Z,10.5
2022-10-15T09:08:12.540Z,10.5
2022-10-15T09:10:11.115Z,10.5
2022-10-15T09:12:12.155Z,10.4
2022-10-15T09:14:05.658Z,10.4
2022-10-15T09:16:05.566Z,10.4
2022-10-15T09:18:02.434Z,10.3
2022-10-15T09:20:06.003Z,10.3
2022-10-15T09:22:02.217Z,10.3
2022-10-15T09:24:03.567Z,10.2
2022-10-15T09:26:14.093Z,10.2
2022-10-15T09:28:09.608Z,10.2
2022-10-15T09:30:06.953Z,10.1
2022-10-15T09:32:13.544Z,10.1
2022-10-15T09:34:12.359Z,10.1
2022-10-15T09:36:15.758Z,10.1
2022-10-15T09:38:13.971Z,10.0
2022-10-15T09:40:21.311Z,10.0
2022-10-15T09:42:10.703Z,10.0
2022-10-15T09:44:06.966Z,10.0
2022-10-15T09:46:02.581Z,10.0
2022-10-15T09:48:06.044Z,10.0
2022-10-15T09:50:03.340Z,9.9
2022-10-15T09:52:08.412Z,9.9
2022-10-15T09:54:09.888Z,9.9
2022-10-15T09:56:10.265Z,9.9
2022-10-15T09:58:07.459Z,9.9
2022-10-15T10:00:07.516Z,9.9
2022-10-15T10:02:04.816Z,9.9
2022-10-15T10:04:13.458Z,9.9
2022-10-15T10:06:06.303Z,9.9
2022-10-15T10:08:09.521Z,9.9
2022-10-15T10:10:07.164Z,9.9
2022-10-15T10:12:05.969Z,9.8
2022-10-15T10:14:04.654Z,9.8
2022-10-15T10:16:06.950Z,9.8
2022-10-15T10:18:06.104Z,9.8
2022-10-15T10:20:14.701Z,9.8
2022-10-15T10:22:13.052Z,9.8
2022-10-15T10:24:20.912Z,9.7
2022-10-15T10:26:04.302Z,9.7
2022-10-15T10:28:17.756Z,9.7
2022-10-15T10:30:07.085Z,9.7
2022-10-15T10:32:11.122Z,9.7
2022-10-15T10:34:03.583Z,9.7
2022-10-15T10:36:03.681Z,9.6
2022-10-15T10:38:03.112Z,9.6
2022-10-15T10:40:21.249Z,9.6
2022-10-15T10:42:05.166Z,9.6
2022-10-15T10:44:02.308Z,9.6
2022-10-15T10:46:05.013Z,9.5
2022-10-15T10:48:20.653Z,9.6
2022-10-15T10:50:02.251Z,9.6
2022-10-15T10:52:02.376Z,9.5
2022-10-15T10:54:05.714Z,9.5
2022-10-15T10:56:06.995Z,9.5
2022-10-15T10:58:04.568Z,9.5
2022-10-15T11:00:05.538Z,9.5
2022-10-15T11:02:04.060Z,9.5
2022-10-15T11:04:03.763Z,9.5
2022-10-15T11:06:20.710Z,9.5
2022-10-15T11:08:10.943Z,9.5
2022-10-15T11:10:11.611Z,9.4
2022-10-15T11:12:14.349Z,9.5
2022-10-15T11:14:17.014Z,9.4
2022-10-15T11:16:07.863Z,9.5
2022-10-15T11:18:18.277Z,9.5
2022-10-15T11:20:29.133Z,9.4
2022-10-15T11:24:13.000Z,9.5
2022-10-15T11:26:10.980Z,9.4
2022-10-15T11:28:20.120Z,9.4
2022-10-15T11:30:07.275Z,9.4
2022-10-15T11:32:16.934Z,9.4
2022-10-15T11:34:17.935Z,9.4
2022-10-15T11:36:18.275Z,9.4
2022-10-15T11:38:20.063Z,9.4
2022-10-15T11:40:15.563Z,9.4
2022-10-15T11:42:13.206Z,9.4
2022-10-15T11:44:19.524Z,9.3
2022-10-15T11:46:10.982Z,9.3
2022-10-15T11:48:09.465Z,9.3
2022-10-15T11:50:17.105Z,9.3
2022-10-15T11:52:19.989Z,9.3
2022-10-15T11:54:12.537Z,9.3
2022-10-15T11:56:06.883Z,9.2
2022-10-15T11:58:11.738Z,9.2
2022-10-15T12:00:10.020Z,9.2
2022-10-15T12:02:09.641Z,9.2
2022-10-15T12:04:06.417Z,9.2
2022-10-15T12:06:07.353Z,9.2
2022-10-15T12:10:14.109Z,9.2
2022-10-15T12:12:10.516Z,9.2
2022-10-15T12:14:14.599Z,9.2
2022-10-15T12:16:15.862Z,9.2
2022-10-15T12:18:10.106Z,9.2
2022-10-15T12:20:09.288Z,9.2
2022-10-15T12:22:10.309Z,9.2
2022-10-15T12:24:03.283Z,9.2
2022-10-15T12:26:02.358Z,9.2
2022-10-15T12:28:05.585Z,9.2
2022-10-15T12:30:14.287Z,9.2
2022-10-15T12:32:02.284Z,9.2
2022-10-15T12:34:02.217Z,9.2
2022-10-15T12:36:08.846Z,9.2
2022-10-15T12:38:19.758Z,9.2
2022-10-15T12:40:09.408Z,9.1
2022-10-15T12:42:02.562Z,9.1
2022-10-15T12:44:09.238Z,8.9
2022-10-15T12:46:05.615Z,8.9
2022-10-15T12:48:21.323Z,8.8
2022-10-15T12:50:05.938Z,8.7
2022-10-15T12:52:13.418Z,8.7
2022-10-15T12:54:02.491Z,8.7
2022-10-15T12:56:13.403Z,8.7
2022-10-15T12:58:05.802Z,8.6
2022-10-15T13:00:04.242Z,8.6
2022-10-15T13:02:02.248Z,8.6
2022-10-15T13:04:02.454Z,8.6
2022-10-15T13:06:21.343Z,8.5
2022-10-15T13:08:06.909Z,8.5
2022-10-15T13:10:03.912Z,8.4
2022-10-15T13:12:02.888Z,8.4
2022-10-15T13:14:13.644Z,8.4
2022-10-15T13:16:08.056Z,8.3
2022-10-15T13:18:11.053Z,8.3
2022-10-15T13:20:07.633Z,8.3
2022-10-15T13:22:05.677Z,8.3
2022-10-15T13:24:02.149Z,8.3
2022-10-15T13:26:16.173Z,8.2
2022-10-15T13:28:02.844Z,8.2
2022-10-15T13:30:05.269Z,8.2
2022-10-15T13:32:03.188Z,8.1
2022-10-15T13:34:11.427Z,8.1
2022-10-15T13:36:06.518Z,8.0
2022-10-15T13:38:04.668Z,8.0
2022-10-15T13:40:07.560Z,7.9
2022-10-15T13:42:15.066Z,7.9
2022-10-15T13:44:02.730Z,7.9
2022-10-15T13:46:02.721Z,7.9
2022-10-15T13:48:02.198Z,7.9
2022-10-15T13:50:12.811Z,7.9
2022-10-15T13:52:02.578Z,7.8
2022-10-15T13:54:09.435Z,7.9
2022-10-15T13:56:14.163Z,7.9
2022-10-15T13:58:05.298Z,7.9
2022-10-15T14:00:05.136Z,7.9
2022-10-15T14:02:03.915Z,7.9
2022-10-15T14:04:04.073Z,7.9
2022-10-15T14:06:16.192Z,8.0
2022-10-15T14:08:02.328Z,8.0
2022-10-15T14:10:02.308Z,8.0
2022-10-15T14:12:06.763Z,8.1
2022-10-15T14:14:02.440Z,8.1
2022-10-15T14:16:14.197Z,8.1
2022-10-15T14:18:03.123Z,8.2
2022-10-15T14:20:26.264Z,8.2
2022-10-15T14:22:03.552Z,8.2
2022-10-15T14:24:06.546Z,8.3
2022-10-15T14:26:04.169Z,8.3
2022-10-15T14:28:02.399Z,8.3
2022-10-15T14:30:02.564Z,8.3
2022-10-15T14:32:03.255Z,8.3
2022-10-15T14:34:02.339Z,8.3
2022-10-15T14:36:09.386Z,8.3
2022-10-15T14:38:04.796Z,8.3
2022-10-15T14:40:12.052Z,8.3
2022-10-15T14:42:04.872Z,8.3
2022-10-15T14:44:06.038Z,8.4
2022-10-15T14:46:04.641Z,8.4
2022-10-15T14:48:09.281Z,8.4
2022-10-15T14:50:04.265Z,8.4
2022-10-15T14:52:07.442Z,8.4
2022-10-15T14:54:03.187Z,8.4
2022-10-15T14:56:07.472Z,8.4
2022-10-15T14:58:07.784Z,8.4
2022-10-15T15:00:05.165Z,8.4
2022-10-15T15:02:04.679Z,8.4
2022-10-15T15:04:02.423Z,8.4
2022-10-15T15:06:02.182Z,8.4
2022-10-15T15:08:04.422Z,8.4
2022-10-15T15:10:02.279Z,8.4
2022-10-15T15:12:02.282Z,8.4
2022-10-15T15:14:03.591Z,8.4
2022-10-15T15:16:03.633Z,8.4
2022-10-15T15:18:02.780Z,8.4
2022-10-15T15:22:02.528Z,8.5
2022-10-15T15:24:02.309Z,8.5
2022-10-15T15:26:02.654Z,8.6
2022-10-15T15:28:02.281Z,8.6
2022-10-15T15:30:02.211Z,8.6
2022-10-15T15:32:02.208Z,8.6
2022-10-15T15:34:02.183Z,8.6
2022-10-15T15:36:04.757Z,8.7
2022-10-15T15:38:02.527Z,8.7
2022-10-15T15:40:02.386Z,8.7
2022-10-15T15:42:02.181Z,8.7
2022-10-15T15:44:04.280Z,8.7
2022-10-15T15:46:02.154Z,8.7
2022-10-15T15:48:03.269Z,8.7
2022-10-15T15:50:02.457Z,8.8
2022-10-15T15:52:02.558Z,8.8
2022-10-15T15:54:05.770Z,8.8
2022-10-15T15:56:02.193Z,8.9
2022-10-15T15:58:02.179Z,8.9
2022-10-15T16:00:02.890Z,9.0
2022-10-15T16:02:03.266Z,9.1
2022-10-15T16:04:02.388Z,9.1
2022-10-15T16:06:04.381Z,9.2
2022-10-15T16:08:02.795Z,9.2
2022-10-15T16:10:03.517Z,9.2
2022-10-15T16:12:04.350Z,9.2
2022-10-15T16:14:04.669Z,9.3
2022-10-15T16:16:03.425Z,9.3
2022-10-15T16:18:02.168Z,9.4
2022-10-15T16:20:02.311Z,9.4
2022-10-15T16:22:02.420Z,9.5
2022-10-15T16:24:02.436Z,9.6
2022-10-15T16:26:02.415Z,9.6
2022-10-15T16:28:03.059Z,9.7
2022-10-15T16:30:03.378Z,9.7
2022-10-15T16:32:02.258Z,9.8
2022-10-15T16:34:03.348Z,9.8
2022-10-15T16:36:02.166Z,9.9
2022-10-15T16:38:02.470Z,9.9
2022-10-15T16:40:03.025Z,10.1
2022-10-15T16:42:02.181Z,10.1
2022-10-15T16:44:02.811Z,10.2
2022-10-15T16:46:02.816Z,10.3
2022-10-15T16:48:02.190Z,10.4
2022-10-15T16:50:02.582Z,10.4
2022-10-15T16:52:02.341Z,10.6
2022-10-15T16:54:02.176Z,10.7
2022-10-15T16:56:05.311Z,10.8
2022-10-15T16:58:02.185Z,10.8
2022-10-15T17:00:02.246Z,10.9
2022-10-15T17:02:02.484Z,11.1
2022-10-15T17:04:02.432Z,11.2
2022-10-15T17:06:05.693Z,11.3
2022-10-15T17:08:02.795Z,11.4
2022-10-15T17:10:02.362Z,11.5
2022-10-15T17:12:02.228Z,11.6
2022-10-15T17:14:05.622Z,11.7
2022-10-15T17:16:13.390Z,11.8
2022-10-15T17:18:02.280Z,12.0
2022-10-15T17:20:02.208Z,12.1
2022-10-15T17:22:02.194Z,12.2
2022-10-15T17:24:05.279Z,12.3
2022-10-15T17:26:05.744Z,12.4
2022-10-15T17:28:02.645Z,12.6
2022-10-15T17:30:02.238Z,12.7
2022-10-15T17:32:02.545Z,13.0
2022-10-15T17:34:04.319Z,13.4
2022-10-15T17:36:03.640Z,13.7
2022-10-15T17:38:02.278Z,14.0
2022-10-15T17:40:02.454Z,14.2
2022-10-15T17:42:02.188Z,14.4
2022-10-15T17:44:02.330Z,14.4
2022-10-15T17:46:05.181Z,14.4
2022-10-15T17:48:02.712Z,14.6
2022-10-15T17:50:02.295Z,14.8
2022-10-15T17:52:02.614Z,14.9
2022-10-15T17:54:03.018Z,14.9
2022-10-15T17:56:11.479Z,15.2
2022-10-15T17:58:02.539Z,15.3
2022-10-15T18:00:02.400Z,15.3
2022-10-15T18:02:02.383Z,15.4
2022-10-15T18:04:02.778Z,15.5
2022-10-15T18:06:07.752Z,15.6
2022-10-15T18:08:03.579Z,15.6
2022-10-15T18:10:02.356Z,15.7
2022-10-15T18:12:02.330Z,16.1
2022-10-15T18:14:03.826Z,16.4
2022-10-15T18:16:02.874Z,16.8
2022-10-15T18:18:02.798Z,16.7
2022-10-15T18:20:02.484Z,16.8
2022-10-15T18:22:02.399Z,16.8
2022-10-15T18:24:02.142Z,16.9
2022-10-15T18:26:03.783Z,16.7
2022-10-15T18:28:03.117Z,16.7
2022-10-15T18:30:02.250Z,17.1
2022-10-15T18:32:02.599Z,17.2
2022-10-15T18:34:02.396Z,17.2
2022-10-15T18:36:06.651Z,17.3
2022-10-15T18:38:02.879Z,17.3
2022-10-15T18:40:03.085Z,17.2
2022-10-15T18:42:02.225Z,17.3
2022-10-15T18:44:04.826Z,17.3
2022-10-15T18:46:02.464Z,17.4
2022-10-15T18:48:03.068Z,17.3
2022-10-15T18:50:03.491Z,17.5
2022-10-15T18:52:10.713Z,17.7
2022-10-15T18:54:03.243Z,17.8
2022-10-15T18:56:02.277Z,17.8
2022-10-15T18:58:02.800Z,17.9
2022-10-15T19:00:04.168Z,18.2
2022-10-15T19:02:02.539Z,18.5
2022-10-15T19:04:05.559Z,18.9
2022-10-15T19:06:02.226Z,18.8
2022-10-15T19:08:03.765Z,18.6
2022-10-15T19:10:02.496Z,18.6
2022-10-15T19:12:04.100Z,18.6
2022-10-15T19:14:05.341Z,18.4
2022-10-15T19:16:03.480Z,18.6
2022-10-15T19:18:05.243Z,18.7
2022-10-15T19:20:02.346Z,18.7
2022-10-15T19:22:02.910Z,18.7
2022-10-15T19:24:02.395Z,18.7
2022-10-15T19:26:06.213Z,18.7
2022-10-15T19:28:02.170Z,18.8
2022-10-15T19:30:02.342Z,18.8
2022-10-15T19:32:03.340Z,18.8
2022-10-15T19:34:03.070Z,18.9
2022-10-15T19:36:03.012Z,18.9
2022-10-15T19:38:02.839Z,19.1
2022-10-15T19:40:02.467Z,19.6
2022-10-15T19:42:02.394Z,19.7
2022-10-15T19:44:03.800Z,20.0
2022-10-15T19:46:04.292Z,20.0
2022-10-15T19:48:02.648Z,20.1
2022-10-15T19:50:02.280Z,20.3
2022-10-15T19:52:02.250Z,20.4
2022-10-15T19:54:03.697Z,20.6
2022-10-15T19:56:06.699Z,20.9
2022-10-15T19:58:02.379Z,20.9
2022-10-15T20:00:03.624Z,21.1
2022-10-15T20:02:02.197Z,21.1
2022-10-15T20:04:06.043Z,21.1
2022-10-15T20:06:05.737Z,21.1
2022-10-15T20:08:02.403Z,21.1
2022-10-15T20:10:02.660Z,21.1
2022-10-15T20:12:03.020Z,21.1
2022-10-15T20:14:03.560Z,21.1
2022-10-15T20:16:05.143Z,21.1
2022-10-15T20:18:02.470Z,21.1
2022-10-15T20:20:02.289Z,21.0
2022-10-15T20:22:03.145Z,21.0
2022-10-15T20:24:03.705Z,21.0
2022-10-15T20:26:05.145Z,21.0
2022-10-15T20:28:02.808Z,21.0
2022-10-15T20:30:02.259Z,21.1
2022-10-15T20:32:11.055Z,21.1
2022-10-15T20:34:03.602Z,21.1
2022-10-15T20:36:05.140Z,21.1
2022-10-15T20:38:04.041Z,21.2
2022-10-15T20:40:02.838Z,21.2
2022-10-15T20:42:02.176Z,21.3
2022-10-15T20:44:02.743Z,21.3
2022-10-15T20:46:02.970Z,21.4
2022-10-15T20:48:03.065Z,21.4
2022-10-15T20:50:04.881Z,21.5
2022-10-15T20:52:03.751Z,21.6
2022-10-15T20:54:02.483Z,21.6
2022-10-15T20:56:03.010Z,21.6
2022-10-15T20:58:02.237Z,21.7
2022-10-15T21:00:02.457Z,21.8
2022-10-15T21:02:02.429Z,21.8
2022-10-15T21:04:02.677Z,21.9
2022-10-15T21:06:02.285Z,21.9
2022-10-15T21:08:02.408Z,22.1
2022-10-15T21:10:02.313Z,22.1
2022-10-15T21:12:02.391Z,22.2
2022-10-15T21:14:02.401Z,22.2
2022-10-15T21:16:05.424Z,22.3
2022-10-15T21:18:02.983Z,22.3
2022-10-15T21:20:02.482Z,22.3
2022-10-15T21:22:02.394Z,22.3
2022-10-15T21:24:02.237Z,22.3
2022-10-15T21:26:07.542Z,22.4
2022-10-15T21:28:02.365Z,22.4
2022-10-15T21:30:02.452Z,22.4
2022-10-15T21:32:02.246Z,22.4
2022-10-15T21:34:02.171Z,22.4
2022-10-15T21:36:09.906Z,22.4
2022-10-15T21:38:02.512Z,22.3
2022-10-15T21:40:02.993Z,22.4
2022-10-15T21:42:02.186Z,22.4
2022-10-15T21:44:03.614Z,22.4
2022-10-15T21:46:07.818Z,22.4
2022-10-15T21:48:02.380Z,22.4
2022-10-15T21:50:02.269Z,22.4
2022-10-15T21:52:03.412Z,22.4
2022-10-15T21:54:04.012Z,22.4
2022-10-15T21:56:02.292Z,22.4
2022-10-15T21:58:02.169Z,22.4
2022-10-15T22:00:02.278Z,22.4
2022-10-15T22:02:03.133Z,22.4
2022-10-15T22:04:05.461Z,22.4
2022-10-15T22:06:02.253Z,22.4
2022-10-15T22:08:02.242Z,22.4
2022-10-15T22:10:02.185Z,22.4
2022-10-15T22:12:02.981Z,22.3
2022-10-15T22:14:05.157Z,22.3
2022-10-15T22:16:03.354Z,22.3
2022-10-15T22:18:02.156Z,22.3
2022-10-15T22:20:02.246Z,22.3
2022-10-15T22:24:06.026Z,22.2
2022-10-15T22:26:02.268Z,22.2
2022-10-15T22:28:02.572Z,22.3
2022-10-15T22:30:02.243Z,22.3
2022-10-15T22:32:03.005Z,22.3
2022-10-15T22:34:02.778Z,22.3
2022-10-15T22:36:03.258Z,22.3
2022-10-15T22:38:02.795Z,22.3
2022-10-15T22:40:02.375Z,22.3
2022-10-15T22:42:03.767Z,22.3
2022-10-15T22:44:03.026Z,22.3
2022-10-15T22:46:02.770Z,22.3
2022-10-15T22:48:02.409Z,22.4
2022-10-15T22:52:02.799Z,22.4
2022-10-15T22:54:02.274Z,22.4
2022-10-15T22:56:04.957Z,22.4
2022-10-15T22:58:02.201Z,22.4
2022-10-15T23:00:02.489Z,22.4
2022-10-15T23:02:03.812Z,22.4
2022-10-15T23:04:04.656Z,22.4
2022-10-15T23:06:03.042Z,22.4
2022-10-15T23:08:02.247Z,22.4
2022-10-15T23:10:02.238Z,22.4
2022-10-15T23:12:03.093Z,22.3
2022-10-15T23:14:04.174Z,22.3
2022-10-15T23:16:07.579Z,22.4
2022-10-15T23:18:02.176Z,22.3
2022-10-15T23:20:02.926Z,22.3
2022-10-15T23:22:03.036Z,22.3
2022-10-15T23:24:03.630Z,22.3
2022-10-15T23:26:02.256Z,22.3
2022-10-15T23:28:02.397Z,22.2
2022-10-15T23:30:14.401Z,22.2
2022-10-15T23:32:02.198Z,22.1
2022-10-15T23:34:04.599Z,22.1
2022-10-15T23:36:04.477Z,22.1
2022-10-15T23:38:02.218Z,22.0
2022-10-15T23:40:02.491Z,22.0
2022-10-15T23:42:02.181Z,21.9
2022-10-15T23:44:02.833Z,21.9
2022-10-15T23:46:03.332Z,21.9
2022-10-15T23:48:02.348Z,21.8
2022-10-15T23:50:02.300Z,21.8
2022-10-15T23:52:03.230Z,21.8
2022-10-15T23:54:03.740Z,21.8
2022-10-15T23:56:03.183Z,21.7
2022-10-15T23:58:02.548Z,21.7
